Endeavour — VNJC — position and weather

sailwx.info

Track history (hours):
 
Tides and Currents Weather Stations Pressure Air Temp Water Temp Dewpoint Dewpoint Depression Visibility Wind Speed Wind Dir Waves Ship Positions

Endeavour (Australia)

Ship's website: http://www.anmm.gov.au/

Last reported at 2016-Apr-02 05:20 UTC. Time now 2017-Oct-22 19:23 UTC.
Position S 36°46' E 150°53'.
Warning: this ship's position is years out of date!

Length 44 m; draft 3.9 m.

Type: Sailing vessel. MMSI: 503094000.

Date/timePositionNaut miles runAvg speedWind from/ knotsBaromVisibWave heightAir tempDewpointWater temp
2016-Apr-02 05:20S 36°46' E 150°53'5 6.0
2016-Apr-02 04:32S 36°50' E 150°54'2 2.0
2016-Apr-02 03:33S 36°52' E 150°52'2 2.2
2016-Apr-02 02:33S 36°52' E 150°49'2 2.0
2016-Apr-02 01:33S 36°53' E 150°47'2 2.3
2016-Apr-02 00:34S 36°54' E 150°44'3 2.6
2016-Apr-01 23:34S 36°55' E 150°42'3 2.9
2016-Apr-01 22:34S 36°57' E 150°39'3 2.8
2016-Apr-01 21:33S 36°59' E 150°36'2 2.0
2016-Apr-01 20:34S 37°00' E 150°34'2 2.1
2016-Apr-01 19:33S 37°02' E 150°32'2 2.2
2016-Apr-01 18:34S 37°03' E 150°30'2 2.1
2016-Apr-01 17:33S 37°05' E 150°28'2 2.2
2016-Apr-01 16:33S 37°06' E 150°27'2 1.9
2016-Apr-01 15:33S 37°08' E 150°25'2 2.3
2016-Apr-01 14:33S 37°09' E 150°23'1 1.3
2016-Apr-01 13:33S 37°10' E 150°21'2 2.0
2016-Apr-01 12:33S 37°09' E 150°24'5 4.5
2016-Apr-01 11:33S 37°10' E 150°29'1 0.6
2016-Apr-01 10:34S 37°10' E 150°30'4 4.2
2016-Apr-01 09:33S 37°10' E 150°24'4 3.6
2016-Apr-01 08:33S 37°09' E 150°20'3 3.1
2016-Apr-01 07:33S 37°08' E 150°16'3 3.4
2016-Apr-01 06:33S 37°06' E 150°13'3 3.5
2016-Apr-01 05:33S 37°04' E 150°09'4 3.9
2016-Apr-01 04:33S 37°02' E 150°05'2 2.2
2016-Apr-01 03:33S 36°60' E 150°04'5 4.7
2016-Apr-01 02:33S 37°00' E 150°10'4 4.1
2016-Apr-01 01:33S 36°60' E 150°15'4 3.7
2016-Apr-01 00:34S 36°60' E 150°20'4 3.6
2016-Mar-31 23:33S 36°59' E 150°24'2 1.5
2016-Mar-31 22:33S 36°59' E 150°22'2 2.1
2016-Mar-31 21:33S 37°00' E 150°20'2 2.5
2016-Mar-31 20:33S 37°02' E 150°17'2 1.9
2016-Mar-31 19:33S 37°03' E 150°16'2 1.9
2016-Mar-31 18:34S 37°04' E 150°14'2 1.9
2016-Mar-31 17:33S 37°06' E 150°12'1 1.1
2016-Mar-31 16:33S 37°06' E 150°11'2 1.8
2016-Mar-31 15:33S 37°08' E 150°11'3 2.7
2016-Mar-31 14:34S 37°11' E 150°10'3 2.8
2016-Mar-31 13:34S 37°13' E 150°09'2 2.2
2016-Mar-31 12:33S 37°15' E 150°08'4 3.6
2016-Mar-31 11:33S 37°19' E 150°07'5 4.7
2016-Mar-31 10:34S 37°24' E 150°06'5 5.1
2016-Mar-31 09:33S 37°28' E 150°04'6 5.6
2016-Mar-31 08:33S 37°34' E 150°02'5 5.4
2016-Mar-31 07:33S 37°38' E 149°58'6 5.5
2016-Mar-31 06:33S 37°43' E 149°54'6 5.6
2016-Mar-31 05:33S 37°47' E 149°49'6 5.9
2016-Mar-31 04:33S 37°52' E 149°45'6 6.1
2016-Mar-31 03:33S 37°56' E 149°40'6 6.1
2016-Mar-31 02:33S 38°01' E 149°34'6 6.2
2016-Mar-31 01:33S 38°05' E 149°29'  
2016-Mar-27 22:29S 39°31' E 147°32'4 3.7
2016-Mar-27 21:24S 39°32' E 147°27'9 4.4
2016-Mar-27 19:18S 39°36' E 147°16'7 3.8
2016-Mar-27 17:19S 39°38' E 147°07'3 3.4
2016-Mar-27 16:33S 39°38' E 147°03'4 3.7
2016-Mar-27 15:33S 39°39' E 146°59'4 3.6
2016-Mar-27 14:33S 39°40' E 146°54'4 4.0
2016-Mar-27 13:33S 39°41' E 146°49'5 4.6
2016-Mar-27 12:34S 39°42' E 146°43'4 4.3
2016-Mar-27 11:33S 39°43' E 146°38'4 3.8
2016-Mar-27 10:33S 39°44' E 146°33'5 4.6
2016-Mar-27 09:33S 39°46' E 146°28'5 4.9
2016-Mar-27 08:31S 39°48' E 146°22'45 5.0
2016-Mar-26 23:32S 39°39' E 145°24'164 4.2
2016-Mar-25 08:31S 38°47' E 142°04'4 3.8
2016-Mar-25 07:32S 38°45' E 142°00'3 3.2
2016-Mar-25 06:31S 38°42' E 141°58'4 3.9
2016-Mar-25 05:32S 38°39' E 141°56'4 3.5
2016-Mar-25 04:29S 38°36' E 141°52'3 3.0
2016-Mar-25 03:32S 38°34' E 141°50'  
Track history (hours):
 
Tides and Currents Weather Stations Pressure Air Temp Water Temp Dewpoint Dewpoint Depression Visibility Wind Speed Wind Dir Waves Ship Positions

Endeavour (Australia)

Ship's website: http://www.anmm.gov.au/

Last reported at 2016-Apr-02 05:20 UTC. Time now 2017-Oct-22 19:24 UTC.
Position S 36°46' E 150°53'.
Warning: this ship's position is years out of date!

Length 44 m; draft 3.9 m.

Type: Sailing vessel. MMSI: 503094000.

Date/timePositionNaut miles runAvg speedWind from/ knotsBaromVisibWave heightAir tempDewpointWater temp
2016-Apr-02 05:20S 36°46' E 150°53'5 6.0
2016-Apr-02 04:32S 36°50' E 150°54'2 2.0
2016-Apr-02 03:33S 36°52' E 150°52'2 2.2
2016-Apr-02 02:33S 36°52' E 150°49'2 2.0
2016-Apr-02 01:33S 36°53' E 150°47'2 2.3
2016-Apr-02 00:34S 36°54' E 150°44'3 2.6
2016-Apr-01 23:34S 36°55' E 150°42'3 2.9
2016-Apr-01 22:34S 36°57' E 150°39'3 2.8
2016-Apr-01 21:33S 36°59' E 150°36'2 2.0
2016-Apr-01 20:34S 37°00' E 150°34'2 2.1
2016-Apr-01 19:33S 37°02' E 150°32'2 2.2
2016-Apr-01 18:34S 37°03' E 150°30'2 2.1
2016-Apr-01 17:33S 37°05' E 150°28'2 2.2
2016-Apr-01 16:33S 37°06' E 150°27'2 1.9
2016-Apr-01 15:33S 37°08' E 150°25'2 2.3
2016-Apr-01 14:33S 37°09' E 150°23'1 1.3
2016-Apr-01 13:33S 37°10' E 150°21'2 2.0
2016-Apr-01 12:33S 37°09' E 150°24'5 4.5
2016-Apr-01 11:33S 37°10' E 150°29'1 0.6
2016-Apr-01 10:34S 37°10' E 150°30'4 4.2
2016-Apr-01 09:33S 37°10' E 150°24'4 3.6
2016-Apr-01 08:33S 37°09' E 150°20'3 3.1
2016-Apr-01 07:33S 37°08' E 150°16'3 3.4
2016-Apr-01 06:33S 37°06' E 150°13'3 3.5
2016-Apr-01 05:33S 37°04' E 150°09'4 3.9
2016-Apr-01 04:33S 37°02' E 150°05'2 2.2
2016-Apr-01 03:33S 36°60' E 150°04'5 4.7
2016-Apr-01 02:33S 37°00' E 150°10'4 4.1
2016-Apr-01 01:33S 36°60' E 150°15'4 3.7
2016-Apr-01 00:34S 36°60' E 150°20'4 3.6
2016-Mar-31 23:33S 36°59' E 150°24'2 1.5
2016-Mar-31 22:33S 36°59' E 150°22'2 2.1
2016-Mar-31 21:33S 37°00' E 150°20'2 2.5
2016-Mar-31 20:33S 37°02' E 150°17'2 1.9
2016-Mar-31 19:33S 37°03' E 150°16'2 1.9
2016-Mar-31 18:34S 37°04' E 150°14'2 1.9
2016-Mar-31 17:33S 37°06' E 150°12'1 1.1
2016-Mar-31 16:33S 37°06' E 150°11'2 1.8
2016-Mar-31 15:33S 37°08' E 150°11'3 2.7
2016-Mar-31 14:34S 37°11' E 150°10'3 2.8
2016-Mar-31 13:34S 37°13' E 150°09'2 2.2
2016-Mar-31 12:33S 37°15' E 150°08'4 3.6
2016-Mar-31 11:33S 37°19' E 150°07'5 4.7
2016-Mar-31 10:34S 37°24' E 150°06'5 5.1
2016-Mar-31 09:33S 37°28' E 150°04'6 5.6
2016-Mar-31 08:33S 37°34' E 150°02'5 5.4
2016-Mar-31 07:33S 37°38' E 149°58'6 5.5
2016-Mar-31 06:33S 37°43' E 149°54'6 5.6
2016-Mar-31 05:33S 37°47' E 149°49'6 5.9
2016-Mar-31 04:33S 37°52' E 149°45'6 6.1
2016-Mar-31 03:33S 37°56' E 149°40'6 6.1
2016-Mar-31 02:33S 38°01' E 149°34'6 6.2
2016-Mar-31 01:33S 38°05' E 149°29'  
2016-Mar-27 22:29S 39°31' E 147°32'4 3.7
2016-Mar-27 21:24S 39°32' E 147°27'9 4.4
2016-Mar-27 19:18S 39°36' E 147°16'7 3.8
2016-Mar-27 17:19S 39°38' E 147°07'3 3.4
2016-Mar-27 16:33S 39°38' E 147°03'4 3.7
2016-Mar-27 15:33S 39°39' E 146°59'4 3.6
2016-Mar-27 14:33S 39°40' E 146°54'4 4.0
2016-Mar-27 13:33S 39°41' E 146°49'5 4.6
2016-Mar-27 12:34S 39°42' E 146°43'4 4.3
2016-Mar-27 11:33S 39°43' E 146°38'4 3.8
2016-Mar-27 10:33S 39°44' E 146°33'5 4.6
2016-Mar-27 09:33S 39°46' E 146°28'5 4.9
2016-Mar-27 08:31S 39°48' E 146°22'45 5.0
2016-Mar-26 23:32S 39°39' E 145°24'164 4.2
2016-Mar-25 08:31S 38°47' E 142°04'4 3.8
2016-Mar-25 07:32S 38°45' E 142°00'3 3.2
2016-Mar-25 06:31S 38°42' E 141°58'4 3.9
2016-Mar-25 05:32S 38°39' E 141°56'4 3.5
2016-Mar-25 04:29S 38°36' E 141°52'3 3.0
2016-Mar-25 03:32S 38°34' E 141°50'  

Dump ship's entire track history